Terminal Aerodrome Forecast
Issued by NWS

Home | Current Version | Previous Version | Text Only | Print | Product List | Glossary On
Versions: 1 2 3 4 5 6 7 8 9 10 11 12 13
000
FTUS46 KOTX 172331
TAFMWH
TAF
KMWH 172331Z 1800/1824 24015G25KT P6SM SKC
     FM180200 22006KT P6SM BKN150
     FM181700 20007KT P6SM BKN200=

USA.gov is the U.S. government's official web portal to all federal, state and local government web resources and services.